Time;durP1;ratioP1;P1;durP2;ratioP2;P2;SDS_P1;SDS_P2;PMS_P1;PMS_P2;Temp;Humidity;BMP_temperature;BMP_pressure;BME280_temperature;BME280_humidity;BME280_pressure;Samples;Min_cycle;Max_cycle;Signal;HPM_P1;HPM_P2
2021/09/13 00:01:28;;;;;;;4.22;3.47;;;;;;;18.57;54.51;99847.09;4486684;31;33571;-83
2021/09/13 00:03:57;;;;;;;5.18;3.20;;;;;;;18.42;55.05;99846.47;4474266;31;32162;-84
2021/09/13 00:06:27;;;;;;;3.75;3.22;;;;;;;18.18;55.62;99841.09;4499830;31;33714;-83
2021/09/13 00:08:55;;;;;;;6.95;3.58;;;;;;;18.28;55.37;99847.50;4487546;31;33578;-83
2021/09/13 00:11:23;;;;;;;5.22;3.20;;;;;;;18.33;55.09;99845.31;4490700;31;34463;-83
2021/09/13 00:13:51;;;;;;;5.85;3.83;;;;;;;18.25;55.47;99850.38;4475362;32;33189;-83
2021/09/13 00:16:19;;;;;;;4.93;3.58;;;;;;;17.98;56.32;99849.75;4473708;31;33974;-83
2021/09/13 00:18:49;;;;;;;7.12;4.30;;;;;;;18.01;56.20;99847.72;4486614;31;34036;-83
2021/09/13 00:21:16;;;;;;;6.87;3.72;;;;;;;18.19;55.88;99841.97;4486953;31;33604;-83
2021/09/13 00:23:44;;;;;;;4.32;3.85;;;;;;;18.14;56.32;99856.53;4488140;31;34054;-83
2021/09/13 00:26:14;;;;;;;4.10;3.28;;;;;;;18.40;55.24;99845.69;4488419;31;33617;-83
2021/09/13 00:28:42;;;;;;;3.70;3.40;;;;;;;18.28;55.53;99846.63;4485039;31;33395;-83
2021/09/13 00:31:10;;;;;;;4.68;3.08;;;;;;;18.43;54.99;99845.47;4491596;31;33423;-83
2021/09/13 00:33:38;;;;;;;5.25;3.05;;;;;;;18.37;55.27;99851.25;4482009;31;33443;-83
2021/09/13 00:36:06;;;;;;;5.35;3.53;;;;;;;18.27;55.59;99850.25;4486637;31;33507;-83
2021/09/13 00:38:34;;;;;;;5.62;3.28;;;;;;;18.24;55.60;99846.00;4486680;31;33995;-83
2021/09/13 00:41:07;;;;;;;4.97;3.50;;;;;;;18.12;56.05;99846.91;4475528;32;33905;-83
2021/09/13 00:43:34;;;;;;;4.57;3.55;;;;;;;18.15;56.00;99842.19;4473682;31;33347;-83
2021/09/13 00:46:04;;;;;;;5.35;3.78;;;;;;;18.08;56.63;99843.59;4486542;31;33985;-83
2021/09/13 00:48:33;;;;;;;5.28;3.83;;;;;;;18.22;56.07;99844.41;4483907;31;34738;-83
2021/09/13 00:51:00;;;;;;;4.37;3.15;;;;;;;18.23;55.83;99851.44;4483761;32;34993;-83
2021/09/13 00:53:31;;;;;;;3.80;3.25;;;;;;;18.23;55.86;99846.09;4483707;32;34152;-84
2021/09/13 00:55:59;;;;;;;4.00;3.65;;;;;;;18.15;56.11;99847.53;4475683;31;32727;-84
2021/09/13 00:58:28;;;;;;;5.25;3.45;;;;;;;18.24;55.90;99847.84;4487654;31;33676;-83
2021/09/13 01:01:01;;;;;;;3.87;3.40;;;;;;;18.27;55.61;99847.59;4483575;31;33918;-83
2021/09/13 01:03:30;;;;;;;4.18;3.53;;;;;;;18.19;55.66;99834.81;4483499;32;33993;-83
2021/09/13 01:05:58;;;;;;;3.60;3.05;;;;;;;18.12;55.80;99842.41;4478445;31;32529;-83
2021/09/13 01:08:26;;;;;;;5.68;4.18;;;;;;;17.99;56.36;99844.28;4487554;31;34916;-83
2021/09/13 01:10:55;;;;;;;5.70;3.67;;;;;;;18.00;56.26;99842.50;4483245;31;34182;-82
2021/09/13 01:13:23;;;;;;;4.70;3.53;;;;;;;18.03;56.31;99843.09;4486611;31;34302;-83
2021/09/13 01:15:51;;;;;;;3.42;3.17;;;;;;;17.89;56.86;99841.44;4486275;31;33881;-83
2021/09/13 01:18:19;;;;;;;3.53;3.22;;;;;;;17.38;58.80;99841.56;4478857;31;34236;-83
2021/09/13 01:20:49;;;;;;;4.50;3.75;;;;;;;17.72;57.72;99846.28;4486701;31;33838;-82
2021/09/13 01:23:33;;;;;;;7.40;4.47;;;;;;;17.85;57.30;99845.31;4483527;31;33492;-83
2021/09/13 01:26:03;;;;;;;6.75;4.78;;;;;;;17.85;57.48;99845.31;4484767;31;34583;-84
2021/09/13 01:28:32;;;;;;;4.22;3.40;;;;;;;18.05;56.78;99843.84;4484888;31;33619;-83
2021/09/13 01:31:01;;;;;;;3.87;3.55;;;;;;;17.91;57.18;99847.53;4488250;31;33470;-83
2021/09/13 01:33:29;;;;;;;7.60;3.97;;;;;;;17.89;57.35;99844.09;4484110;31;33355;-83
2021/09/13 01:35:56;;;;;;;5.35;3.87;;;;;;;17.85;57.44;99848.00;4485818;31;34639;-82
2021/09/13 01:38:28;;;;;;;6.35;4.05;;;;;;;17.83;57.60;99846.38;4476429;31;34439;-83
2021/09/13 01:40:55;;;;;;;6.07;3.80;;;;;;;17.82;57.62;99850.88;4484395;31;33562;-83
2021/09/13 01:43:23;;;;;;;4.60;3.70;;;;;;;17.83;57.33;99841.03;4483038;31;33396;-83
2021/09/13 01:45:51;;;;;;;6.10;3.45;;;;;;;17.80;57.48;99843.94;4485563;31;33848;-83
2021/09/13 01:48:19;;;;;;;5.78;4.07;;;;;;;17.86;57.48;99833.66;4485541;31;34083;-83
2021/09/13 01:50:47;;;;;;;6.35;3.12;;;;;;;17.83;57.49;99841.03;4484810;31;33386;-83
2021/09/13 01:53:15;;;;;;;3.65;3.22;;;;;;;17.70;58.20;99838.38;4485557;31;33087;-84
2021/09/13 01:55:43;;;;;;;4.75;4.20;;;;;;;17.87;57.50;99847.87;4484293;31;33473;-84
2021/09/13 01:58:11;;;;;;;5.75;4.15;;;;;;;17.66;58.52;99851.13;4483234;31;36356;-83
2021/09/13 02:00:39;;;;;;;5.87;3.75;;;;;;;17.84;57.81;99848.09;4463987;31;32841;-83
2021/09/13 02:03:07;;;;;;;3.97;3.45;;;;;;;17.80;57.88;99842.13;4488927;31;32992;-83
2021/09/13 02:05:36;;;;;;;3.72;3.42;;;;;;;17.85;57.68;99848.00;4484105;31;33201;-83
2021/09/13 02:08:04;;;;;;;4.78;4.28;;;;;;;17.76;57.89;99845.16;4461413;31;33202;-83
2021/09/13 02:10:32;;;;;;;4.72;4.22;;;;;;;17.76;57.95;99843.31;4484813;31;34454;-83
2021/09/13 02:13:00;;;;;;;4.85;4.25;;;;;;;17.82;57.79;99847.34;4484315;31;33877;-83
2021/09/13 02:15:28;;;;;;;4.30;3.90;;;;;;;17.69;58.29;99843.84;4485590;31;34929;-84
2021/09/13 02:17:56;;;;;;;5.57;3.95;;;;;;;17.75;58.19;99846.94;4477168;31;33449;-84
2021/09/13 02:20:26;;;;;;;6.05;5.12;;;;;;;17.74;58.16;99850.56;4493463;31;33533;-83
2021/09/13 02:22:54;;;;;;;5.82;4.32;;;;;;;17.62;58.69;99849.63;4485062;31;34010;-83
2021/09/13 02:25:22;;;;;;;6.07;4.20;;;;;;;17.77;58.33;99854.84;4482777;32;35151;-83
2021/09/13 02:27:50;;;;;;;4.82;3.30;;;;;;;17.62;58.63;99865.66;4484531;31;33589;-83
2021/09/13 02:30:18;;;;;;;7.32;3.95;;;;;;;17.55;59.14;99853.69;4493524;31;34827;-83
2021/09/13 02:32:46;;;;;;;4.47;4.00;;;;;;;17.50;59.20;99861.16;4484607;31;33041;-83
2021/09/13 02:35:14;;;;;;;6.47;4.10;;;;;;;17.44;59.30;99856.28;4489871;31;32656;-84
2021/09/13 02:37:42;;;;;;;6.43;5.05;;;;;;;17.43;59.33;99864.41;4484766;31;33365;-84
2021/09/13 02:40:11;;;;;;;7.12;4.07;;;;;;;17.49;59.34;99856.81;4477100;31;32813;-82
2021/09/13 02:42:39;;;;;;;5.55;3.97;;;;;;;17.50;59.16;99855.84;4482478;32;33137;-82
2021/09/13 02:45:07;;;;;;;6.50;4.50;;;;;;;17.57;58.78;99850.94;4483218;31;33613;-82
2021/09/13 02:47:35;;;;;;;5.22;4.28;;;;;;;17.42;59.38;99863.53;4489262;31;33709;-83
2021/09/13 02:50:03;;;;;;;7.12;4.40;;;;;;;17.41;59.38;99854.66;4482737;31;33879;-83
2021/09/13 02:52:31;;;;;;;4.60;4.05;;;;;;;17.50;58.96;99854.97;4479994;32;32926;-83
2021/09/13 02:54:59;;;;;;;4.12;3.45;;;;;;;17.61;58.68;99850.59;4494821;31;33670;-83
2021/09/13 02:57:27;;;;;;;5.07;4.32;;;;;;;17.49;59.01;99859.47;4471767;31;34146;-83
2021/09/13 02:59:54;;;;;;;6.37;4.62;;;;;;;17.54;58.91;99851.13;4484975;31;33867;-83
2021/09/13 03:02:22;;;;;;;6.05;4.53;;;;;;;17.62;58.36;99851.44;4478520;31;33064;-83
2021/09/13 03:04:50;;;;;;;5.45;4.57;;;;;;;17.60;58.48;99845.34;4486007;31;33544;-83
2021/09/13 03:07:18;;;;;;;5.15;4.65;;;;;;;17.60;58.51;99851.53;4466069;31;33217;-83
2021/09/13 03:09:46;;;;;;;5.07;4.32;;;;;;;17.65;58.31;99854.72;4483257;31;33862;-83
2021/09/13 03:12:14;;;;;;;6.95;4.22;;;;;;;17.64;58.33;99858.38;4486304;31;33558;-83
2021/09/13 03:14:41;;;;;;;7.50;4.35;;;;;;;17.61;58.50;99852.38;4487282;31;34604;-84
2021/09/13 03:17:09;;;;;;;7.18;4.25;;;;;;;17.58;58.53;99863.31;4487239;31;34095;-84
2021/09/13 03:19:37;;;;;;;6.10;4.07;;;;;;;17.49;58.88;99858.63;4480799;31;34087;-84
2021/09/13 03:22:06;;;;;;;6.00;4.50;;;;;;;17.40;59.27;99860.97;4487290;31;33030;-83
2021/09/13 03:24:33;;;;;;;6.10;4.37;;;;;;;17.33;59.40;99858.88;4477935;31;33166;-84
2021/09/13 03:27:02;;;;;;;9.75;4.72;;;;;;;17.36;59.34;99858.63;4484430;32;33686;-84
2021/09/13 03:29:31;;;;;;;7.43;4.70;;;;;;;17.42;58.96;99858.19;4473315;31;34220;-83
2021/09/13 03:32:00;;;;;;;5.60;4.10;;;;;;;17.24;59.57;99860.38;4477035;32;32018;-83
2021/09/13 03:34:29;;;;;;;6.12;4.80;;;;;;;17.37;59.49;99855.00;4493350;31;33556;-84
2021/09/13 03:36:59;;;;;;;4.65;4.05;;;;;;;17.35;59.55;99862.25;4486906;31;33857;-83
2021/09/13 03:39:27;;;;;;;4.78;4.32;;;;;;;17.20;59.83;99863.34;4474103;31;32981;-84
2021/09/13 03:41:55;;;;;;;6.43;4.82;;;;;;;17.34;59.20;99869.44;4486161;31;33403;-83
2021/09/13 03:44:23;;;;;;;5.55;4.87;;;;;;;17.21;59.58;99867.72;4473509;31;32682;-83
2021/09/13 03:46:54;;;;;;;5.50;4.32;;;;;;;17.19;59.83;99873.19;4486279;31;34807;-83
2021/09/13 03:49:23;;;;;;;8.13;4.72;;;;;;;17.23;59.63;99868.44;4486445;31;34021;-83
2021/09/13 03:51:51;;;;;;;5.68;4.80;;;;;;;17.10;60.04;99876.47;4495287;31;33337;-83
2021/09/13 03:54:18;;;;;;;10.38;4.75;;;;;;;17.17;59.91;99871.56;4475092;31;33171;-83
2021/09/13 03:56:48;;;;;;;7.97;4.82;;;;;;;17.23;59.64;99868.44;4474462;31;33221;-83
2021/09/13 03:59:16;;;;;;;6.78;4.20;;;;;;;17.22;59.82;99874.75;4476700;31;34027;-83
2021/09/13 04:01:45;;;;;;;5.18;4.70;;;;;;;17.34;59.48;99879.25;4486928;31;32787;-81
2021/09/13 04:04:15;;;;;;;6.03;4.53;;;;;;;17.13;60.51;99884.25;4487355;31;33191;-82
2021/09/13 04:06:49;;;;;;;5.10;4.35;;;;;;;17.28;59.82;99874.31;4485758;31;33763;-82
2021/09/13 04:12:02;;;;;;;5.32;4.70;;;;;;;17.23;59.85;99876.47;4484227;31;32402;-83
2021/09/13 04:14:35;;;;;;;8.48;4.87;;;;;;;17.11;nan;99883.53;4497216;31;33699;-83
2021/09/13 04:17:08;;;;;;;9.82;4.80;;;;;;;16.89;61.10;99879.66;4463145;31;34355;-83
2021/09/13 04:19:38;;;;;;;5.68;4.55;;;;;;;17.13;60.24;99885.09;4484728;31;34135;-84
2021/09/13 04:22:07;;;;;;;7.70;4.72;;;;;;;17.14;60.13;99886.00;4479119;31;33502;-83
2021/09/13 04:24:37;;;;;;;9.38;4.93;;;;;;;17.10;60.36;99879.16;4487326;31;33957;-83
2021/09/13 04:27:05;;;;;;;8.77;4.80;;;;;;;16.95;61.00;99880.19;4485904;31;34060;-84
2021/09/13 04:29:34;;;;;;;5.35;4.10;;;;;;;17.08;60.45;99887.25;4473086;31;35490;-84
2021/09/13 04:32:07;;;;;;;9.13;4.68;;;;;;;17.14;60.12;99881.50;4479275;31;33168;-82
2021/09/13 04:34:35;;;;;;;7.90;5.00;;;;;;;17.18;60.10;99886.59;4465585;31;32935;-82
2021/09/13 04:37:05;;;;;;;7.65;5.03;;;;;;;17.00;60.90;99889.59;4485028;31;33994;-83
2021/09/13 04:39:36;;;;;;;8.18;5.50;;;;;;;17.01;60.93;99882.44;4488809;31;33766;-83
2021/09/13 04:42:06;;;;;;;7.07;5.12;;;;;;;16.95;61.17;99886.41;4485197;31;33099;-82
2021/09/13 04:44:38;;;;;;;7.93;5.03;;;;;;;17.02;61.18;99885.00;4463850;31;32700;-82
2021/09/13 04:47:10;;;;;;;5.47;4.03;;;;;;;17.01;61.41;99880.63;4485094;31;35009;-82
2021/09/13 04:49:40;;;;;;;8.77;5.45;;;;;;;17.11;61.07;99887.03;4484737;31;35890;-82
2021/09/13 04:52:08;;;;;;;8.88;5.10;;;;;;;17.17;60.90;99880.41;4483100;31;32707;-82
2021/09/13 04:54:36;;;;;;;9.48;5.82;;;;;;;17.17;61.23;99875.06;4477973;31;34305;-82
2021/09/13 04:57:05;;;;;;;8.02;6.18;;;;;;;17.15;61.08;99888.53;4480973;31;33549;-82
2021/09/13 04:59:34;;;;;;;9.90;5.18;;;;;;;17.25;60.77;99887.91;4487428;31;34449;-83
2021/09/13 05:02:02;;;;;;;8.18;5.55;;;;;;;17.31;60.66;99879.44;4467114;31;32097;-82
2021/09/13 05:04:30;;;;;;;12.85;5.97;;;;;;;17.34;60.57;99884.59;4487202;31;34852;-82
2021/09/13 05:06:58;;;;;;;11.48;5.55;;;;;;;17.47;60.29;99897.91;4477157;31;32909;-82
2021/09/13 05:09:26;;;;;;;9.10;5.93;;;;;;;17.51;60.42;99894.91;4463730;31;32860;-82
2021/09/13 05:11:54;;;;;;;8.43;6.12;;;;;;;17.38;60.78;99891.41;4492501;31;33485;-82
2021/09/13 05:14:23;;;;;;;9.82;5.28;;;;;;;17.21;61.79;99902.41;4481507;31;33204;-82
2021/09/13 05:16:51;;;;;;;11.73;5.28;;;;;;;17.39;61.41;99893.97;4486757;31;34057;-85
2021/09/13 05:19:21;;;;;;;7.57;5.60;;;;;;;17.55;61.08;99895.56;4482198;31;34216;-84
2021/09/13 05:21:48;;;;;;;8.07;5.97;;;;;;;17.64;61.18;99898.41;4485633;31;33329;-85
2021/09/13 05:24:16;;;;;;;7.25;5.75;;;;;;;17.72;61.29;99894.34;4481465;31;33614;-84
2021/09/13 05:26:47;;;;;;;14.60;6.72;;;;;;;17.96;60.88;99905.97;4474562;31;34811;-84
2021/09/13 05:29:15;;;;;;;11.15;6.12;;;;;;;17.99;60.76;99897.72;4471316;32;34508;-84
2021/09/13 05:31:42;;;;;;;9.73;6.40;;;;;;;18.31;60.10;99900.69;4476728;31;32390;-84
2021/09/13 05:34:10;;;;;;;8.50;5.78;;;;;;;18.45;60.64;99904.16;4477171;31;33467;-84
2021/09/13 05:36:38;;;;;;;11.02;6.55;;;;;;;18.38;60.58;99895.78;4484095;31;34982;-84
2021/09/13 05:39:06;;;;;;;10.30;6.70;;;;;;;18.26;60.62;99892.16;4479392;31;32503;-84
2021/09/13 05:41:36;;;;;;;12.55;6.20;;;;;;;18.50;60.22;99892.16;4475906;32;32564;-84
2021/09/13 05:44:05;;;;;;;12.27;7.05;;;;;;;18.75;60.21;99898.34;4470854;32;34453;-84
2021/09/13 05:46:33;;;;;;;9.23;6.37;;;;;;;18.76;60.82;99898.25;4476324;32;33366;-84
2021/09/13 05:49:02;;;;;;;7.53;5.80;;;;;;;19.16;60.29;99897.84;4477108;31;34198;-84
2021/09/13 05:51:30;;;;;;;11.68;6.40;;;;;;;19.38;60.15;99891.69;4491675;31;33460;-84
2021/09/13 05:53:57;;;;;;;9.63;6.72;;;;;;;19.58;60.14;99896.31;4477996;32;33296;-84
2021/09/13 05:56:25;;;;;;;10.38;5.53;;;;;;;19.69;58.95;99890.97;4484683;31;34564;-84
2021/09/13 05:58:53;;;;;;;11.75;5.53;;;;;;;19.85;57.97;99895.13;4487889;31;33898;-83
2021/09/13 06:01:21;;;;;;;8.23;5.72;;;;;;;19.95;57.25;99896.94;4483419;32;34208;-83
2021/09/13 06:03:49;;;;;;;7.50;5.35;;;;;;;20.02;56.46;99894.59;4487883;31;33892;-83
2021/09/13 06:06:17;;;;;;;7.37;6.22;;;;;;;20.11;55.67;99884.94;4492792;31;33818;-83
2021/09/13 06:08:45;;;;;;;9.68;5.90;;;;;;;20.21;56.92;99886.75;4482779;32;33840;-83
2021/09/13 06:11:13;;;;;;;10.07;6.40;;;;;;;20.39;55.57;99883.53;4482810;31;33367;-83
2021/09/13 06:13:41;;;;;;;9.38;6.53;;;;;;;20.50;54.80;99891.53;4487378;31;33532;-82
2021/09/13 06:16:09;;;;;;;11.00;6.72;;;;;;;20.64;55.11;99883.19;4485512;31;33391;-82
2021/09/13 06:18:38;;;;;;;10.07;7.22;;;;;;;20.77;54.54;99890.22;4475777;31;33184;-83
2021/09/13 06:21:06;;;;;;;10.13;6.60;;;;;;;20.79;54.32;99893.59;4486399;31;33125;-82
2021/09/13 06:23:33;;;;;;;11.77;7.55;;;;;;;20.99;55.71;99894.63;4485309;31;33637;-83
2021/09/13 06:26:02;;;;;;;10.77;6.65;;;;;;;20.89;55.44;99886.50;4483053;31;34821;-83
2021/09/13 06:28:31;;;;;;;11.90;6.57;;;;;;;21.34;55.25;99886.22;4484825;31;34625;-83
2021/09/13 06:30:59;;;;;;;11.07;7.55;;;;;;;21.50;54.46;99891.09;4483887;31;34179;-83
2021/09/13 06:33:28;;;;;;;12.82;6.28;;;;;;;21.77;56.18;99890.50;4485016;31;33539;-84
2021/09/13 06:35:56;;;;;;;9.95;5.28;;;;;;;22.03;55.52;99880.97;4487568;31;34381;-82
2021/09/13 06:38:24;;;;;;;5.05;4.12;;;;;;;22.15;54.73;99882.56;4460812;31;34167;-83
2021/09/13 06:40:52;;;;;;;7.68;4.78;;;;;;;22.41;52.94;99882.06;4480604;31;32873;-83
2021/09/13 06:43:20;;;;;;;8.30;4.03;;;;;;;22.63;52.06;99884.44;4486559;31;32972;-83
2021/09/13 06:45:56;;;;;;;16.92;4.43;;;;;;;22.89;51.66;99882.06;4477347;31;32969;-83
2021/09/13 06:48:26;;;;;;;5.93;3.92;;;;;;;23.04;50.98;99882.47;4492088;31;33314;-83
2021/09/13 06:50:54;;;;;;;9.35;4.97;;;;;;;23.36;50.78;99886.59;4485517;31;33007;-83
2021/09/13 06:53:23;;;;;;;5.37;4.10;;;;;;;23.42;50.11;99883.34;4487864;31;34013;-83
2021/09/13 06:55:51;;;;;;;5.45;4.30;;;;;;;23.71;49.90;99886.78;4484852;31;34247;-83
2021/09/13 06:58:20;;;;;;;4.87;3.40;;;;;;;23.89;48.66;99886.00;4486607;31;33511;-83
2021/09/13 07:00:48;;;;;;;5.93;4.05;;;;;;;24.21;47.89;99872.88;4485846;31;33463;-84
2021/09/13 07:03:16;;;;;;;4.95;4.28;;;;;;;24.42;47.66;99877.16;4476135;31;34254;-83
2021/09/13 07:05:45;;;;;;;4.72;3.83;;;;;;;24.55;47.22;99887.59;4487997;31;34046;-83
2021/09/13 07:08:12;;;;;;;4.70;4.20;;;;;;;24.65;46.95;99877.56;4486617;31;33532;-81
2021/09/13 07:10:41;;;;;;;7.00;4.68;;;;;;;24.83;46.43;99891.88;4478786;31;34319;-80
2021/09/13 07:13:11;;;;;;;5.60;4.57;;;;;;;25.01;45.65;99891.81;4487192;31;33288;-81
2021/09/13 07:15:40;;;;;;;6.43;5.07;;;;;;;24.89;46.33;99888.53;4486537;31;33579;-83
2021/09/13 07:18:09;;;;;;;8.95;4.70;;;;;;;25.15;45.43;99894.00;4475131;31;32828;-83
2021/09/13 07:20:40;;;;;;;10.10;4.60;;;;;;;25.31;45.19;99892.44;4479178;31;31226;-83
2021/09/13 07:23:09;;;;;;;5.78;5.10;;;;;;;25.41;45.31;99893.16;4477345;31;33288;-82
2021/09/13 07:25:37;;;;;;;8.63;5.15;;;;;;;25.43;44.90;99900.09;4486895;31;33714;-80
2021/09/13 07:28:06;;;;;;;10.27;5.32;;;;;;;25.94;45.09;99894.78;4488747;31;33854;-80
2021/09/13 07:30:34;;;;;;;10.90;4.75;;;;;;;25.99;43.96;99892.44;4484439;31;33119;-80
2021/09/13 07:33:02;;;;;;;6.85;4.72;;;;;;;26.24;43.44;99893.34;4491146;31;34328;-80
2021/09/13 07:35:31;;;;;;;8.70;4.75;;;;;;;26.18;43.24;99894.84;4478675;31;33138;-80
2021/09/13 07:38:00;;;;;;;10.38;4.57;;;;;;;26.33;43.11;99902.34;4481495;31;33596;-80
2021/09/13 07:40:30;;;;;;;18.08;5.18;;;;;;;26.57;42.52;99899.69;4476888;31;33412;-82
2021/09/13 07:43:02;;;;;;;11.43;5.18;;;;;;;26.92;42.80;99897.66;4485495;31;34651;-82
2021/09/13 07:45:30;;;;;;;5.65;4.53;;;;;;;26.78;42.45;99904.63;4486841;31;32859;-79
2021/09/13 07:47:58;;;;;;;8.20;4.30;;;;;;;26.89;42.38;99900.75;4489063;31;33951;-79
2021/09/13 07:50:26;;;;;;;8.93;4.40;;;;;;;27.35;42.70;99912.75;4472667;31;33746;-80
2021/09/13 07:52:59;;;;;;;5.62;3.75;;;;;;;27.37;41.36;99907.16;4499091;31;33512;-80
2021/09/13 07:55:27;;;;;;;6.10;4.00;;;;;;;27.36;40.72;99911.72;4485597;31;34028;-80
2021/09/13 07:57:55;;;;;;;7.62;4.10;;;;;;;27.84;41.51;99901.78;4486407;31;34824;-80
2021/09/13 08:00:39;;;;;;;5.05;3.70;;;;;;;28.05;40.83;99907.44;4483583;31;32996;-80
2021/09/13 08:03:07;;;;;;;4.32;3.47;;;;;;;27.99;40.18;99907.31;4477599;31;33662;-80
2021/09/13 08:05:35;;;;;;;4.22;3.50;;;;;;;28.23;39.38;99907.19;4476999;31;33636;-80
2021/09/13 08:08:03;;;;;;;4.70;3.42;;;;;;;28.53;39.80;99904.63;4492366;31;33804;-80
2021/09/13 08:10:31;;;;;;;3.30;3.00;;;;;;;28.21;38.93;99908.41;4474892;31;33162;-80
2021/09/13 08:13:00;;;;;;;3.92;3.22;;;;;;;28.64;38.30;99898.81;4473292;31;33718;-79
2021/09/13 08:15:27;;;;;;;4.03;2.92;;;;;;;28.69;37.70;99899.09;4479409;31;34448;-80
2021/09/13 08:17:56;;;;;;;6.37;3.83;;;;;;;28.76;38.31;99893.78;4492376;31;33568;-80
2021/09/13 08:20:25;;;;;;;3.83;3.30;;;;;;;28.80;37.88;99897.81;4471298;31;32624;-80
2021/09/13 08:22:52;;;;;;;3.22;2.95;;;;;;;28.94;37.70;99897.03;4485222;31;33624;-80
2021/09/13 08:25:21;;;;;;;3.90;3.33;;;;;;;29.35;36.28;99904.84;4485199;31;34979;-80
2021/09/13 08:27:49;;;;;;;3.67;3.30;;;;;;;29.21;36.77;99901.06;4478939;31;34752;-80
2021/09/13 08:30:17;;;;;;;4.37;3.50;;;;;;;29.15;36.61;99899.09;4483935;31;33146;-80
2021/09/13 08:32:44;;;;;;;5.40;2.92;;;;;;;29.09;38.18;99902.53;4485077;31;34022;-80
2021/09/13 08:35:12;;;;;;;4.37;3.92;;;;;;;29.20;35.94;99906.66;4484761;31;33979;-80
2021/09/13 08:37:40;;;;;;;4.57;2.85;;;;;;;29.39;36.05;99911.59;4490287;31;33625;-80
2021/09/13 08:40:08;;;;;;;6.12;3.80;;;;;;;29.58;35.80;99905.62;4484692;31;33114;-80
2021/09/13 08:42:47;;;;;;;4.03;3.60;;;;;;;29.01;36.27;99910.78;4486394;31;33554;-80
2021/09/13 08:45:21;;;;;;;3.50;3.20;;;;;;;28.95;36.72;99908.75;4479866;31;33697;-80
2021/09/13 08:47:57;;;;;;;4.22;3.42;;;;;;;29.61;36.30;99906.28;4487927;31;34412;-81
2021/09/13 08:53:04;;;;;;;4.68;3.37;;;;;;;29.73;35.97;99913.78;4491344;31;34201;-81
2021/09/13 08:55:32;;;;;;;3.85;2.97;;;;;;;30.10;34.86;99910.09;4486965;31;34100;-81
2021/09/13 08:58:00;;;;;;;4.75;2.95;;;;;;;29.98;35.59;99910.75;4486586;31;33425;-80
2021/09/13 09:00:29;;;;;;;3.90;3.40;;;;;;;30.10;35.29;99910.09;4488959;31;33552;-81
2021/09/13 09:02:58;;;;;;;4.50;2.92;;;;;;;30.05;35.06;99908.94;4489102;31;33561;-81
2021/09/13 09:05:38;;;;;;;6.35;2.80;;;;;;;30.15;33.91;99912.28;4488725;31;33929;-80
2021/09/13 09:08:06;;;;;;;3.50;3.20;;;;;;;30.52;33.48;99902.19;4484554;31;33638;-81
2021/09/13 09:10:34;;;;;;;3.12;2.83;;;;;;;30.03;33.66;99905.59;4485374;31;33834;-81
2021/09/13 09:13:13;;;;;;;3.15;2.85;;;;;;;30.15;33.81;99906.81;4486306;31;33396;-81
2021/09/13 09:15:59;;;;;;;2.90;2.58;;;;;;;30.57;35.17;99908.72;4477552;31;35730;-81
2021/09/13 09:18:40;;;;;;;3.03;2.70;;;;;;;30.50;33.90;99904.28;4480623;31;34239;-81
2021/09/13 09:21:25;;;;;;;4.25;2.67;;;;;;;30.60;32.19;99902.06;4466914;31;33712;-81
2021/09/13 09:24:04;;;;;;;4.78;3.33;;;;;;;30.60;32.25;99904.78;4494525;31;33844;-81
2021/09/13 09:26:32;;;;;;;3.17;2.85;;;;;;;30.83;33.26;99902.75;4484714;31;34503;-81
2021/09/13 09:29:00;;;;;;;3.30;2.75;;;;;;;30.94;32.27;99905.97;4485759;31;32958;-81
2021/09/13 09:31:41;;;;;;;4.62;3.05;;;;;;;31.28;31.50;99907.94;4491884;31;33024;-81
2021/09/13 09:34:12;;;;;;;3.90;3.12;;;;;;;30.85;33.36;99897.94;4479300;31;33906;-81
2021/09/13 09:36:39;;;;;;;6.25;3.53;;;;;;;31.23;32.01;99899.50;4488616;31;33972;-81
2021/09/13 09:39:12;;;;;;;3.22;2.62;;;;;;;31.25;32.37;99892.81;4485846;31;33804;-81
2021/09/13 09:41:44;;;;;;;3.45;3.05;;;;;;;30.84;30.92;99889.94;4488157;31;34281;-81
2021/09/13 09:44:11;;;;;;;3.35;3.03;;;;;;;30.79;31.48;99903.34;4479033;31;34397;-81
2021/09/13 09:46:41;;;;;;;4.82;2.72;;;;;;;31.11;33.13;99899.22;4478185;31;32740;-81
2021/09/13 09:49:11;;;;;;;2.62;2.30;;;;;;;31.48;31.21;99891.75;4486058;31;34595;-81
2021/09/13 09:51:43;;;;;;;3.60;2.87;;;;;;;30.76;31.49;99888.19;4478245;31;32875;-81
2021/09/13 09:54:13;;;;;;;7.78;2.83;;;;;;;31.39;31.75;99892.94;4483062;31;34873;-81
2021/09/13 09:56:44;;;;;;;3.33;3.05;;;;;;;31.69;29.19;99894.37;4474356;31;34176;-81
2021/09/13 09:59:13;;;;;;;3.90;2.85;;;;;;;31.38;29.84;99897.53;4486734;31;33643;-81
2021/09/13 10:01:43;;;;;;;3.92;3.03;;;;;;;31.39;30.98;99895.66;4480251;31;34029;-81
2021/09/13 10:04:19;;;;;;;3.95;3.15;;;;;;;31.68;29.20;99889.97;4485717;31;33582;-81
2021/09/13 10:06:51;;;;;;;5.75;3.47;;;;;;;31.34;29.80;99894.37;4493957;31;32983;-81
2021/09/13 10:09:21;;;;;;;7.45;2.90;;;;;;;31.02;30.02;99889.47;4486358;31;33721;-81
2021/09/13 10:11:51;;;;;;;3.25;2.60;;;;;;;30.82;30.29;99890.16;4476722;31;32164;-81
2021/09/13 10:14:23;;;;;;;4.00;2.60;;;;;;;31.26;30.56;99890.94;4487046;31;32884;-83
2021/09/13 10:16:52;;;;;;;2.78;2.28;;;;;;;31.60;28.57;99884.66;4481887;31;33794;-83
2021/09/13 10:19:42;;;;;;;2.97;2.58;;;;;;;31.73;28.54;99884.75;4488789;31;33873;-82
2021/09/13 10:22:10;;;;;;;4.00;2.50;;;;;;;31.57;28.25;99891.38;4492015;31;33132;-83
2021/09/13 10:24:39;;;;;;;4.05;2.50;;;;;;;31.60;29.91;99884.66;4476428;31;34191;-82
2021/09/13 10:27:11;;;;;;;2.70;2.50;;;;;;;32.15;28.46;99882.00;4475712;31;33434;-82
2021/09/13 10:29:40;;;;;;;2.72;2.50;;;;;;;31.94;28.73;99874.78;4479744;32;33460;-82
2021/09/13 10:32:08;;;;;;;2.47;2.28;;;;;;;32.25;26.95;99866.91;4480413;31;32345;-82
2021/09/13 10:34:39;;;;;;;6.60;2.70;;;;;;;32.15;28.27;99887.47;4496381;31;33444;-82
2021/09/13 10:37:24;;;;;;;2.58;2.30;;;;;;;31.91;27.90;99880.66;4486935;31;34339;-82
2021/09/13 10:40:11;;;;;;;2.35;2.15;;;;;;;32.18;27.67;99882.41;4485829;31;33148;-82
2021/09/13 10:42:43;;;;;;;2.78;2.28;;;;;;;32.18;26.52;99876.12;4479499;31;33565;-82
2021/09/13 10:45:15;;;;;;;;;;;;;;;31.91;28.15;99875.19;4493485;31;33931;-82
2021/09/13 10:47:58;;;;;;;3.03;2.37;;;;;;;31.82;28.24;99877.25;4480886;31;36178;-82
2021/09/13 10:50:51;;;;;;;2.85;2.40;;;;;;;31.65;28.75;99881.31;4486495;31;34253;-82
2021/09/13 10:53:22;;;;;;;1.90;1.80;;;;;;;31.48;28.12;99870.75;4485508;31;33157;-82
2021/09/13 10:55:52;;;;;;;2.62;2.37;;;;;;;31.82;27.73;99869.91;4492151;31;33524;-83
2021/09/13 10:58:39;;;;;;;3.28;2.53;;;;;;;32.16;27.70;99872.75;4495508;31;33124;-82
2021/09/13 11:01:10;;;;;;;2.22;2.03;;;;;;;32.10;27.49;99871.69;4493247;31;34129;-83
2021/09/13 11:03:40;;;;;;;3.03;2.25;;;;;;;31.89;28.12;99860.88;4486729;31;32998;-83
2021/09/13 11:06:14;;;;;;;2.78;2.58;;;;;;;32.19;28.50;99861.41;4475480;32;32833;-83
2021/09/13 11:08:54;;;;;;;3.33;2.40;;;;;;;32.39;28.18;99853.31;4487443;31;34340;-82
2021/09/13 11:11:42;;;;;;;3.58;2.22;;;;;;;32.42;26.70;99861.91;4491199;31;33028;-83
2021/09/13 11:14:19;;;;;;;2.47;2.22;;;;;;;32.00;27.76;99858.44;4480914;31;33157;-83
2021/09/13 11:16:52;;;;;;;3.53;2.40;;;;;;;32.23;26.26;99847.13;4486853;31;33560;-83
2021/09/13 11:19:22;;;;;;;2.35;2.00;;;;;;;31.81;29.02;99862.72;4484800;31;35136;-83
2021/09/13 11:21:57;;;;;;;4.22;2.08;;;;;;;31.76;28.98;99854.31;4481505;31;33007;-83
2021/09/13 11:24:29;;;;;;;2.78;2.40;;;;;;;31.69;28.93;99867.06;4485534;31;33437;-83
2021/09/13 11:27:11;;;;;;;2.40;2.20;;;;;;;31.70;28.93;99859.72;4483155;31;32644;-83
2021/09/13 11:29:41;;;;;;;2.42;2.22;;;;;;;30.89;31.15;99857.50;4482382;31;33032;-83
2021/09/13 11:32:16;;;;;;;3.40;2.33;;;;;;;30.72;33.23;99856.94;4476371;31;34128;-83
2021/09/13 11:34:46;;;;;;;3.33;2.33;;;;;;;30.49;32.07;99859.00;4486589;31;33159;-83
2021/09/13 11:37:23;;;;;;;;;;;;;;;30.49;33.58;99859.00;4475415;31;35448;-83
2021/09/13 11:40:12;;;;;;;3.87;2.42;;;;;;;30.56;34.07;99862.63;4492463;31;34350;-83
2021/09/13 11:42:40;;;;;;;2.87;2.30;;;;;;;31.02;31.06;99851.31;4485710;31;33909;-83
2021/09/13 11:45:12;;;;;;;3.50;2.60;;;;;;;31.25;30.57;99848.31;4485722;31;33103;-83
2021/09/13 11:48:03;;;;;;;3.22;2.42;;;;;;;31.32;31.10;99854.69;4503495;31;33278;-82
2021/09/13 11:50:35;;;;;;;3.05;2.72;;;;;;;31.13;31.41;99856.19;4475263;31;33469;-83
2021/09/13 11:53:12;;;;;;;8.68;2.47;;;;;;;31.63;30.72;99851.50;4486536;31;34274;-82